sensor_id;sensor_type;location;lat;lon;timestamp;pressure;altitude;pressure_sealevel;temperature;humidity
76808;BME280;65758;45.458;11.062;2023-06-10T00:00:44;100542.91;;;23.82;57.72
76808;BME280;65758;45.458;11.062;2023-06-10T00:03:11;100538.34;;;23.77;57.68
76808;BME280;65758;45.458;11.062;2023-06-10T00:05:39;100538.63;;;23.73;57.41
76808;BME280;65758;45.458;11.062;2023-06-10T00:08:06;100537.41;;;23.68;57.39
76808;BME280;65758;45.458;11.062;2023-06-10T00:10:38;100534.46;;;23.66;57.28
76808;BME280;65758;45.458;11.062;2023-06-10T00:13:06;100534.48;;;23.65;57.44
76808;BME280;65758;45.458;11.062;2023-06-10T00:19:58;100534.08;;;23.59;57.34
76808;BME280;65758;45.458;11.062;2023-06-10T00:22:24;100529.18;;;23.54;57.43
76808;BME280;65758;45.458;11.062;2023-06-10T00:24:56;100533.32;;;23.45;57.42
76808;BME280;65758;45.458;11.062;2023-06-10T00:27:25;100532.42;;;23.34;57.52
76808;BME280;65758;45.458;11.062;2023-06-10T00:29:59;100533.45;;;23.24;57.33
76808;BME280;65758;45.458;11.062;2023-06-10T00:32:26;100536.75;;;23.18;57.23
76808;BME280;65758;45.458;11.062;2023-06-10T00:34:54;100538.47;;;23.14;57.24
76808;BME280;65758;45.458;11.062;2023-06-10T00:37:21;100539.44;;;23.13;57.57
76808;BME280;65758;45.458;11.062;2023-06-10T00:39:49;100538.88;;;23.13;57.52
76808;BME280;65758;45.458;11.062;2023-06-10T00:42:16;100541.92;;;23.10;57.49
76808;BME280;65758;45.458;11.062;2023-06-10T00:44:43;100537.33;;;23.02;57.43
76808;BME280;65758;45.458;11.062;2023-06-10T00:47:10;100539.51;;;22.95;57.29
76808;BME280;65758;45.458;11.062;2023-06-10T00:49:37;100538.90;;;22.90;57.19
76808;BME280;65758;45.458;11.062;2023-06-10T00:52:05;100540.02;;;22.85;57.17
76808;BME280;65758;45.458;11.062;2023-06-10T00:54:33;100539.31;;;22.84;57.39
76808;BME280;65758;45.458;11.062;2023-06-10T00:57:01;100539.14;;;22.84;57.81
76808;BME280;65758;45.458;11.062;2023-06-10T00:59:29;100539.85;;;22.84;57.97
76808;BME280;65758;45.458;11.062;2023-06-10T01:01:57;100539.15;;;22.81;58.20
76808;BME280;65758;45.458;11.062;2023-06-10T01:04:24;100537.77;;;22.78;58.50
76808;BME280;65758;45.458;11.062;2023-06-10T01:09:40;100542.35;;;22.78;58.29
76808;BME280;65758;45.458;11.062;2023-06-10T01:12:16;100540.52;;;22.77;57.89
76808;BME280;65758;45.458;11.062;2023-06-10T01:14:46;100541.91;;;22.77;57.65
76808;BME280;65758;45.458;11.062;2023-06-10T01:17:15;100542.23;;;22.75;57.46
76808;BME280;65758;45.458;11.062;2023-06-10T01:19:44;100541.35;;;22.75;57.28
76808;BME280;65758;45.458;11.062;2023-06-10T01:22:11;100543.63;;;22.76;57.50
76808;BME280;65758;45.458;11.062;2023-06-10T01:24:43;100542.94;;;22.76;57.64
76808;BME280;65758;45.458;11.062;2023-06-10T01:27:12;100544.41;;;22.77;57.67
76808;BME280;65758;45.458;11.062;2023-06-10T01:29:45;100538.67;;;22.73;57.28
76808;BME280;65758;45.458;11.062;2023-06-10T01:32:21;100537.29;;;22.63;57.26
76808;BME280;65758;45.458;11.062;2023-06-10T01:34:49;100536.25;;;22.57;57.37
76808;BME280;65758;45.458;11.062;2023-06-10T01:37:19;100537.02;;;22.53;57.51
76808;BME280;65758;45.458;11.062;2023-06-10T01:39:48;100538.67;;;22.50;57.39
76808;BME280;65758;45.458;11.062;2023-06-10T01:42:17;100537.48;;;22.46;57.45
76808;BME280;65758;45.458;11.062;2023-06-10T01:44:44;100537.73;;;22.45;57.55
76808;BME280;65758;45.458;11.062;2023-06-10T01:47:10;100539.48;;;22.45;57.80
76808;BME280;65758;45.458;11.062;2023-06-10T01:49:37;100543.58;;;22.43;58.09
76808;BME280;65758;45.458;11.062;2023-06-10T01:52:06;100541.73;;;22.43;58.26
76808;BME280;65758;45.458;11.062;2023-06-10T01:54:33;100541.55;;;22.42;58.22
76808;BME280;65758;45.458;11.062;2023-06-10T01:57:05;100539.53;;;22.39;58.27
76808;BME280;65758;45.458;11.062;2023-06-10T01:59:32;100536.64;;;22.33;58.27
76808;BME280;65758;45.458;11.062;2023-06-10T02:01:59;100533.20;;;22.27;58.48
76808;BME280;65758;45.458;11.062;2023-06-10T02:04:26;100531.77;;;22.19;58.56
76808;BME280;65758;45.458;11.062;2023-06-10T02:06:53;100533.13;;;22.14;58.86
76808;BME280;65758;45.458;11.062;2023-06-10T02:09:20;100532.27;;;22.09;59.13
76808;BME280;65758;45.458;11.062;2023-06-10T02:11:47;100530.83;;;22.06;59.37
76808;BME280;65758;45.458;11.062;2023-06-10T02:14:14;100533.16;;;22.06;59.63
76808;BME280;65758;45.458;11.062;2023-06-10T02:16:41;100529.36;;;22.10;59.62
76808;BME280;65758;45.458;11.062;2023-06-10T02:19:08;100529.52;;;22.12;59.57
76808;BME280;65758;45.458;11.062;2023-06-10T02:21:35;100531.14;;;22.16;59.61
76808;BME280;65758;45.458;11.062;2023-06-10T02:24:02;100533.24;;;22.16;59.49
76808;BME280;65758;45.458;11.062;2023-06-10T02:26:29;100535.97;;;22.11;59.73
76808;BME280;65758;45.458;11.062;2023-06-10T02:28:58;100539.38;;;22.11;59.80
76808;BME280;65758;45.458;11.062;2023-06-10T02:31:26;100540.52;;;22.12;59.79
76808;BME280;65758;45.458;11.062;2023-06-10T02:33:55;100537.09;;;22.14;59.84
76808;BME280;65758;45.458;11.062;2023-06-10T02:36:23;100544.52;;;22.14;59.94
76808;BME280;65758;45.458;11.062;2023-06-10T02:38:51;100547.74;;;22.13;60.01
76808;BME280;65758;45.458;11.062;2023-06-10T02:41:18;100547.11;;;22.13;60.05
76808;BME280;65758;45.458;11.062;2023-06-10T02:43:45;100546.40;;;22.14;60.10
76808;BME280;65758;45.458;11.062;2023-06-10T02:46:12;100545.85;;;22.14;60.04
76808;BME280;65758;45.458;11.062;2023-06-10T02:48:41;100543.50;;;22.14;60.19
76808;BME280;65758;45.458;11.062;2023-06-10T02:51:12;100544.33;;;22.15;60.28
76808;BME280;65758;45.458;11.062;2023-06-10T02:53:42;100546.13;;;22.13;60.54
76808;BME280;65758;45.458;11.062;2023-06-10T02:56:11;100548.42;;;22.13;60.45
76808;BME280;65758;45.458;11.062;2023-06-10T02:58:39;100543.84;;;22.13;60.56
76808;BME280;65758;45.458;11.062;2023-06-10T03:01:06;100545.73;;;22.14;60.78
76808;BME280;65758;45.458;11.062;2023-06-10T03:03:41;100547.19;;;22.16;60.86
76808;BME280;65758;45.458;11.062;2023-06-10T03:06:12;100552.86;;;22.16;60.99
76808;BME280;65758;45.458;11.062;2023-06-10T03:08:39;100549.58;;;22.16;60.95
76808;BME280;65758;45.458;11.062;2023-06-10T03:11:10;100551.18;;;22.16;61.05
76808;BME280;65758;45.458;11.062;2023-06-10T03:13:38;100554.39;;;22.15;61.22
76808;BME280;65758;45.458;11.062;2023-06-10T03:16:08;100554.09;;;22.13;61.19
76808;BME280;65758;45.458;11.062;2023-06-10T03:18:36;100551.34;;;22.12;61.35
76808;BME280;65758;45.458;11.062;2023-06-10T03:21:03;100554.48;;;22.11;61.39
76808;BME280;65758;45.458;11.062;2023-06-10T03:23:30;100553.66;;;22.11;61.43
76808;BME280;65758;45.458;11.062;2023-06-10T03:25:57;100550.31;;;22.11;61.28
76808;BME280;65758;45.458;11.062;2023-06-10T03:28:24;100554.32;;;22.11;61.41
76808;BME280;65758;45.458;11.062;2023-06-10T03:30:52;100560.02;;;22.10;61.38
76808;BME280;65758;45.458;11.062;2023-06-10T03:33:20;100562.48;;;22.07;61.41
76808;BME280;65758;45.458;11.062;2023-06-10T03:35:48;100562.02;;;22.04;61.63
76808;BME280;65758;45.458;11.062;2023-06-10T03:38:15;100560.84;;;22.02;61.76
76808;BME280;65758;45.458;11.062;2023-06-10T03:40:42;100561.98;;;21.97;61.90
76808;BME280;65758;45.458;11.062;2023-06-10T03:43:09;100562.82;;;21.94;62.09
76808;BME280;65758;45.458;11.062;2023-06-10T03:45:36;100564.41;;;21.91;62.08
76808;BME280;65758;45.458;11.062;2023-06-10T03:48:04;100564.58;;;21.88;62.26
76808;BME280;65758;45.458;11.062;2023-06-10T03:50:39;100567.89;;;21.83;62.48
76808;BME280;65758;45.458;11.062;2023-06-10T03:53:06;100566.06;;;21.79;62.71
76808;BME280;65758;45.458;11.062;2023-06-10T03:55:34;100562.27;;;21.73;62.58
76808;BME280;65758;45.458;11.062;2023-06-10T03:58:02;100561.41;;;21.68;62.90
76808;BME280;65758;45.458;11.062;2023-06-10T04:00:28;100568.27;;;21.68;62.84
76808;BME280;65758;45.458;11.062;2023-06-10T04:02:56;100574.45;;;21.68;62.95
76808;BME280;65758;45.458;11.062;2023-06-10T04:05:31;100569.90;;;21.67;63.09
76808;BME280;65758;45.458;11.062;2023-06-10T04:07:58;100571.47;;;21.66;63.28
76808;BME280;65758;45.458;11.062;2023-06-10T04:10:24;100567.88;;;21.65;63.49
76808;BME280;65758;45.458;11.062;2023-06-10T04:12:53;100572.84;;;21.65;63.45
76808;BME280;65758;45.458;11.062;2023-06-10T04:15:22;100571.95;;;21.65;63.70
76808;BME280;65758;45.458;11.062;2023-06-10T04:17:49;100571.45;;;21.65;63.80
76808;BME280;65758;45.458;11.062;2023-06-10T04:20:17;100571.23;;;21.65;63.94
76808;BME280;65758;45.458;11.062;2023-06-10T04:22:46;100563.06;;;21.66;63.94
76808;BME280;65758;45.458;11.062;2023-06-10T04:25:14;100558.45;;;21.66;63.80
76808;BME280;65758;45.458;11.062;2023-06-10T04:27:41;100559.59;;;21.65;63.85
76808;BME280;65758;45.458;11.062;2023-06-10T04:30:10;100558.86;;;21.64;63.75
76808;BME280;65758;45.458;11.062;2023-06-10T04:32:37;100554.58;;;21.64;63.60
76808;BME280;65758;45.458;11.062;2023-06-10T04:35:07;100548.79;;;21.64;63.92
76808;BME280;65758;45.458;11.062;2023-06-10T04:37:35;100550.91;;;21.64;64.11
76808;BME280;65758;45.458;11.062;2023-06-10T04:40:03;100553.42;;;21.63;64.28
76808;BME280;65758;45.458;11.062;2023-06-10T04:42:30;100557.23;;;21.62;64.23
76808;BME280;65758;45.458;11.062;2023-06-10T04:44:57;100563.66;;;21.61;64.36
76808;BME280;65758;45.458;11.062;2023-06-10T04:55:52;100566.77;;;21.61;64.47
76808;BME280;65758;45.458;11.062;2023-06-10T04:58:19;100561.02;;;21.62;64.30
76808;BME280;65758;45.458;11.062;2023-06-10T05:05:00;100558.92;;;21.68;64.27
76808;BME280;65758;45.458;11.062;2023-06-10T05:07:27;100556.71;;;21.66;64.10
76808;BME280;65758;45.458;11.062;2023-06-10T05:09:53;100559.31;;;21.64;64.06
76808;BME280;65758;45.458;11.062;2023-06-10T05:12:21;100555.40;;;21.65;64.25
76808;BME280;65758;45.458;11.062;2023-06-10T05:14:48;100554.87;;;21.70;64.17
76808;BME280;65758;45.458;11.062;2023-06-10T05:17:15;100554.00;;;21.75;64.48
76808;BME280;65758;45.458;11.062;2023-06-10T05:23:56;100553.75;;;21.82;64.40
76808;BME280;65758;45.458;11.062;2023-06-10T05:26:23;100551.77;;;21.87;64.24
76808;BME280;65758;45.458;11.062;2023-06-10T05:28:50;100551.50;;;21.90;64.11
76808;BME280;65758;45.458;11.062;2023-06-10T05:35:37;100553.45;;;22.04;63.96
76808;BME280;65758;45.458;11.062;2023-06-10T05:38:03;100550.44;;;22.09;63.78
76808;BME280;65758;45.458;11.062;2023-06-10T05:40:30;100546.31;;;22.16;63.82
76808;BME280;65758;45.458;11.062;2023-06-10T05:42:57;100543.20;;;22.20;63.81
76808;BME280;65758;45.458;11.062;2023-06-10T05:45:24;100544.52;;;22.24;63.64
76808;BME280;65758;45.458;11.062;2023-06-10T05:47:51;100542.17;;;22.30;63.60
76808;BME280;65758;45.458;11.062;2023-06-10T05:50:18;100541.64;;;22.37;63.52
76808;BME280;65758;45.458;11.062;2023-06-10T05:56:47;100538.73;;;22.55;63.61
76808;BME280;65758;45.458;11.062;2023-06-10T05:59:14;100542.21;;;22.65;63.27
76808;BME280;65758;45.458;11.062;2023-06-10T06:01:41;100542.34;;;22.73;63.13
76808;BME280;65758;45.458;11.062;2023-06-10T06:04:08;100545.15;;;22.82;62.66
76808;BME280;65758;45.458;11.062;2023-06-10T06:06:35;100543.84;;;22.91;62.26
76808;BME280;65758;45.458;11.062;2023-06-10T06:09:02;100544.86;;;23.03;62.17
76808;BME280;65758;45.458;11.062;2023-06-10T06:15:50;100542.30;;;23.37;60.86
76808;BME280;65758;45.458;11.062;2023-06-10T06:18:17;100544.52;;;23.48;60.56
76808;BME280;65758;45.458;11.062;2023-06-10T06:20:45;100548.05;;;23.59;60.37
76808;BME280;65758;45.458;11.062;2023-06-10T06:23:12;100548.28;;;23.69;60.22
76808;BME280;65758;45.458;11.062;2023-06-10T06:25:39;100547.19;;;23.79;60.14
76808;BME280;65758;45.458;11.062;2023-06-10T06:32:33;100552.98;;;24.01;59.43
76808;BME280;65758;45.458;11.062;2023-06-10T06:35:00;100553.36;;;24.07;59.23
76808;BME280;65758;45.458;11.062;2023-06-10T06:37:27;100554.39;;;24.13;59.17
76808;BME280;65758;45.458;11.062;2023-06-10T06:40:02;100555.61;;;24.20;59.24
76808;BME280;65758;45.458;11.062;2023-06-10T06:42:30;100550.92;;;24.26;58.75
76808;BME280;65758;45.458;11.062;2023-06-10T06:45:08;100553.48;;;24.31;58.77
76808;BME280;65758;45.458;11.062;2023-06-10T06:47:36;100554.79;;;24.36;59.01
76808;BME280;65758;45.458;11.062;2023-06-10T06:50:04;100553.52;;;24.43;58.91
76808;BME280;65758;45.458;11.062;2023-06-10T06:52:30;100556.86;;;24.48;58.48
76808;BME280;65758;45.458;11.062;2023-06-10T06:54:57;100558.66;;;24.52;58.16
76808;BME280;65758;45.458;11.062;2023-06-10T06:57:24;100562.92;;;24.56;57.89
76808;BME280;65758;45.458;11.062;2023-06-10T06:59:51;100563.23;;;24.58;57.82
76808;BME280;65758;45.458;11.062;2023-06-10T07:02:18;100564.68;;;24.62;57.65
76808;BME280;65758;45.458;11.062;2023-06-10T07:04:46;100564.96;;;24.70;57.18
76808;BME280;65758;45.458;11.062;2023-06-10T07:07:15;100565.02;;;24.76;56.76
76808;BME280;65758;45.458;11.062;2023-06-10T07:09:42;100565.69;;;24.81;56.85
76808;BME280;65758;45.458;11.062;2023-06-10T07:12:09;100564.58;;;24.89;56.85
76808;BME280;65758;45.458;11.062;2023-06-10T07:14:36;100562.71;;;24.97;56.84
76808;BME280;65758;45.458;11.062;2023-06-10T07:17:03;100562.14;;;25.05;56.63
76808;BME280;65758;45.458;11.062;2023-06-10T07:19:31;100565.65;;;25.07;56.25
76808;BME280;65758;45.458;11.062;2023-06-10T07:21:57;100569.23;;;25.09;56.34
76808;BME280;65758;45.458;11.062;2023-06-10T07:24:24;100571.11;;;25.15;56.12
76808;BME280;65758;45.458;11.062;2023-06-10T07:26:51;100568.50;;;25.19;56.14
76808;BME280;65758;45.458;11.062;2023-06-10T07:29:18;100564.22;;;25.24;56.03
76808;BME280;65758;45.458;11.062;2023-06-10T07:31:45;100559.98;;;25.31;55.82
76808;BME280;65758;45.458;11.062;2023-06-10T07:34:12;100559.27;;;25.36;55.59
76808;BME280;65758;45.458;11.062;2023-06-10T07:36:38;100559.44;;;25.41;55.24
76808;BME280;65758;45.458;11.062;2023-06-10T07:39:05;100558.11;;;25.46;55.27
76808;BME280;65758;45.458;11.062;2023-06-10T07:41:33;100561.23;;;25.49;55.40
76808;BME280;65758;45.458;11.062;2023-06-10T07:44:00;100560.84;;;25.51;55.44
76808;BME280;65758;45.458;11.062;2023-06-10T07:46:28;100557.95;;;25.55;55.31
76808;BME280;65758;45.458;11.062;2023-06-10T07:48:55;100560.91;;;25.59;55.33
76808;BME280;65758;45.458;11.062;2023-06-10T07:51:22;100558.48;;;25.58;55.21
76808;BME280;65758;45.458;11.062;2023-06-10T07:53:49;100557.27;;;25.59;55.32
76808;BME280;65758;45.458;11.062;2023-06-10T07:56:16;100556.02;;;25.60;55.53
76808;BME280;65758;45.458;11.062;2023-06-10T07:58:43;100553.36;;;25.65;55.36
76808;BME280;65758;45.458;11.062;2023-06-10T08:01:09;100551.41;;;25.70;55.48
76808;BME280;65758;45.458;11.062;2023-06-10T08:03:36;100548.32;;;25.73;55.38
76808;BME280;65758;45.458;11.062;2023-06-10T08:06:04;100546.71;;;25.74;55.41
76808;BME280;65758;45.458;11.062;2023-06-10T08:08:33;100551.62;;;25.77;55.33
76808;BME280;65758;45.458;11.062;2023-06-10T08:11:01;100550.08;;;25.78;55.34
76808;BME280;65758;45.458;11.062;2023-06-10T08:13:28;100550.70;;;25.78;55.45
76808;BME280;65758;45.458;11.062;2023-06-10T08:15:55;100551.35;;;25.80;55.35
76808;BME280;65758;45.458;11.062;2023-06-10T08:18:22;100549.01;;;25.84;55.51
76808;BME280;65758;45.458;11.062;2023-06-10T08:20:49;100548.77;;;25.90;55.29
76808;BME280;65758;45.458;11.062;2023-06-10T08:23:16;100548.52;;;25.90;55.52
76808;BME280;65758;45.458;11.062;2023-06-10T08:25:43;100543.46;;;25.91;55.43
76808;BME280;65758;45.458;11.062;2023-06-10T08:28:09;100546.27;;;25.97;55.46
76808;BME280;65758;45.458;11.062;2023-06-10T08:30:36;100545.43;;;26.01;55.35
76808;BME280;65758;45.458;11.062;2023-06-10T08:33:03;100542.29;;;26.03;55.26
76808;BME280;65758;45.458;11.062;2023-06-10T08:35:30;100539.05;;;26.04;55.40
76808;BME280;65758;45.458;11.062;2023-06-10T08:37:57;100541.55;;;26.04;55.36
76808;BME280;65758;45.458;11.062;2023-06-10T08:40:24;100542.15;;;26.05;55.41
76808;BME280;65758;45.458;11.062;2023-06-10T08:43:07;100539.63;;;26.06;55.45
76808;BME280;65758;45.458;11.062;2023-06-10T08:45:36;100542.80;;;26.07;55.66
76808;BME280;65758;45.458;11.062;2023-06-10T08:48:04;100541.78;;;26.04;55.79
76808;BME280;65758;45.458;11.062;2023-06-10T08:50:37;100540.79;;;26.03;56.05
76808;BME280;65758;45.458;11.062;2023-06-10T08:53:07;100540.80;;;26.05;56.07
76808;BME280;65758;45.458;11.062;2023-06-10T08:55:38;100539.70;;;26.07;56.16
76808;BME280;65758;45.458;11.062;2023-06-10T08:58:08;100542.08;;;26.14;56.04
76808;BME280;65758;45.458;11.062;2023-06-10T09:00:35;100540.41;;;26.26;56.12
76808;BME280;65758;45.458;11.062;2023-06-10T09:07:23;100542.52;;;26.40;55.57
76808;BME280;65758;45.458;11.062;2023-06-10T09:09:51;100540.13;;;26.51;55.64
76808;BME280;65758;45.458;11.062;2023-06-10T09:16:40;100546.75;;;27.05;54.70
76808;BME280;65758;45.458;11.062;2023-06-10T09:19:07;100544.04;;;27.31;53.44
76808;BME280;65758;45.458;11.062;2023-06-10T09:21:37;100541.11;;;27.54;52.91
76808;BME280;65758;45.458;11.062;2023-06-10T09:24:05;100544.05;;;27.80;52.20
76808;BME280;65758;45.458;11.062;2023-06-10T09:26:32;100545.33;;;28.11;51.48
76808;BME280;65758;45.458;11.062;2023-06-10T09:29:07;100548.87;;;28.48;50.59
76808;BME280;65758;45.458;11.062;2023-06-10T09:31:39;100539.39;;;28.74;49.36
76808;BME280;65758;45.458;11.062;2023-06-10T09:34:11;100540.52;;;28.90;49.26
76808;BME280;65758;45.458;11.062;2023-06-10T09:36:38;100536.89;;;29.13;48.59
76808;BME280;65758;45.458;11.062;2023-06-10T09:39:16;100541.53;;;29.45;47.69
76808;BME280;65758;45.458;11.062;2023-06-10T09:41:45;100533.98;;;29.83;46.94
76808;BME280;65758;45.458;11.062;2023-06-10T09:44:17;100536.42;;;30.16;46.08
76808;BME280;65758;45.458;11.062;2023-06-10T09:46:46;100529.59;;;30.32;46.01
76808;BME280;65758;45.458;11.062;2023-06-10T09:49:14;100529.64;;;30.43;45.86
76808;BME280;65758;45.458;11.062;2023-06-10T09:51:54;100529.75;;;30.57;45.77
76808;BME280;65758;45.458;11.062;2023-06-10T09:58:53;100535.73;;;30.87;44.17
76808;BME280;65758;45.458;11.062;2023-06-10T10:05:33;100533.48;;;31.11;43.32
76808;BME280;65758;45.458;11.062;2023-06-10T10:12:21;100530.98;;;31.19;42.02
76808;BME280;65758;45.458;11.062;2023-06-10T10:14:49;100528.11;;;31.06;42.51
76808;BME280;65758;45.458;11.062;2023-06-10T10:17:18;100527.95;;;30.96;42.51
76808;BME280;65758;45.458;11.062;2023-06-10T10:19:50;100524.46;;;30.86;42.32
76808;BME280;65758;45.458;11.062;2023-06-10T10:22:25;100521.20;;;30.74;42.44
76808;BME280;65758;45.458;11.062;2023-06-10T10:36:05;100516.11;;;30.41;42.70
76808;BME280;65758;45.458;11.062;2023-06-10T10:38:35;100525.84;;;30.37;42.41
76808;BME280;65758;45.458;11.062;2023-06-10T10:41:04;100527.27;;;30.38;42.59
76808;BME280;65758;45.458;11.062;2023-06-10T10:43:32;100530.59;;;30.40;42.25
76808;BME280;65758;45.458;11.062;2023-06-10T10:46:00;100531.83;;;30.41;42.18
76808;BME280;65758;45.458;11.062;2023-06-10T10:48:36;100536.48;;;30.48;42.20
76808;BME280;65758;45.458;11.062;2023-06-10T10:51:04;100541.70;;;30.54;41.80
76808;BME280;65758;45.458;11.062;2023-06-10T10:53:31;100543.98;;;30.68;41.77
76808;BME280;65758;45.458;11.062;2023-06-10T11:00:12;100536.94;;;31.18;40.61
76808;BME280;65758;45.458;11.062;2023-06-10T11:02:44;100530.61;;;31.31;40.67
76808;BME280;65758;45.458;11.062;2023-06-10T11:05:16;100527.33;;;31.48;40.37
76808;BME280;65758;45.458;11.062;2023-06-10T11:07:54;100525.75;;;31.65;39.62
76808;BME280;65758;45.458;11.062;2023-06-10T11:10:32;100519.27;;;31.80;39.08
76808;BME280;65758;45.458;11.062;2023-06-10T11:13:00;100520.88;;;31.84;39.07
76808;BME280;65758;45.458;11.062;2023-06-10T11:15:29;100518.79;;;31.94;39.26
76808;BME280;65758;45.458;11.062;2023-06-10T11:18:13;100517.63;;;32.01;39.01
76808;BME280;65758;45.458;11.062;2023-06-10T11:26:21;100509.81;;;32.38;38.79
76808;BME280;65758;45.458;11.062;2023-06-10T11:31:28;100509.23;;;32.47;38.21
76808;BME280;65758;45.458;11.062;2023-06-10T11:33:58;100513.92;;;32.61;38.16
76808;BME280;65758;45.458;11.062;2023-06-10T11:36:27;100518.14;;;32.70;37.59
76808;BME280;65758;45.458;11.062;2023-06-10T11:39:02;100514.20;;;32.54;37.92
76808;BME280;65758;45.458;11.062;2023-06-10T11:41:31;100510.63;;;32.43;37.75
76808;BME280;65758;45.458;11.062;2023-06-10T11:44:08;100508.33;;;32.42;37.65
76808;BME280;65758;45.458;11.062;2023-06-10T11:46:36;100507.23;;;32.53;37.97
76808;BME280;65758;45.458;11.062;2023-06-10T11:49:04;100504.31;;;32.72;37.85
76808;BME280;65758;45.458;11.062;2023-06-10T11:51:35;100502.09;;;32.81;37.82
76808;BME280;65758;45.458;11.062;2023-06-10T11:54:03;100495.48;;;32.88;37.70
76808;BME280;65758;45.458;11.062;2023-06-10T11:56:31;100492.70;;;32.92;37.65
76808;BME280;65758;45.458;11.062;2023-06-10T11:59:00;100484.59;;;32.86;37.77
76808;BME280;65758;45.458;11.062;2023-06-10T12:01:33;100477.54;;;32.75;37.97
76808;BME280;65758;45.458;11.062;2023-06-10T12:04:04;100474.55;;;32.60;37.93
76808;BME280;65758;45.458;11.062;2023-06-10T12:06:51;100465.86;;;32.49;37.92
76808;BME280;65758;45.458;11.062;2023-06-10T12:09:22;100464.79;;;32.47;38.21
76808;BME280;65758;45.458;11.062;2023-06-10T12:11:58;100460.11;;;32.54;38.24
76808;BME280;65758;45.458;11.062;2023-06-10T12:14:52;100452.98;;;32.62;38.13
76808;BME280;65758;45.458;11.062;2023-06-10T12:19:59;100437.45;;;32.99;37.41
76808;BME280;65758;45.458;11.062;2023-06-10T12:22:44;100442.64;;;33.05;37.43
76808;BME280;65758;45.458;11.062;2023-06-10T12:25:11;100438.56;;;33.03;37.32
76808;BME280;65758;45.458;11.062;2023-06-10T12:27:41;100439.77;;;33.03;37.42
76808;BME280;65758;45.458;11.062;2023-06-10T12:30:21;100436.52;;;33.09;37.28
76808;BME280;65758;45.458;11.062;2023-06-10T12:32:48;100437.35;;;33.10;37.36
76808;BME280;65758;45.458;11.062;2023-06-10T12:35:24;100433.81;;;33.06;37.45
76808;BME280;65758;45.458;11.062;2023-06-10T12:38:04;100434.68;;;33.04;37.40
76808;BME280;65758;45.458;11.062;2023-06-10T12:40:36;100444.34;;;32.93;37.45
76808;BME280;65758;45.458;11.062;2023-06-10T12:43:03;100442.59;;;32.77;37.33
76808;BME280;65758;45.458;11.062;2023-06-10T12:45:31;100441.75;;;32.55;37.42
76808;BME280;65758;45.458;11.062;2023-06-10T12:48:10;100444.14;;;32.41;37.53
76808;BME280;65758;45.458;11.062;2023-06-10T12:50:42;100449.15;;;32.36;37.47
76808;BME280;65758;45.458;11.062;2023-06-10T12:53:10;100448.90;;;32.31;37.62
76808;BME280;65758;45.458;11.062;2023-06-10T12:55:40;100448.67;;;32.21;37.67
76808;BME280;65758;45.458;11.062;2023-06-10T12:58:07;100442.00;;;32.09;38.13
76808;BME280;65758;45.458;11.062;2023-06-10T13:00:34;100433.59;;;32.02;38.24
76808;BME280;65758;45.458;11.062;2023-06-10T13:03:04;100434.20;;;31.95;38.45
76808;BME280;65758;45.458;11.062;2023-06-10T13:05:33;100438.58;;;31.77;38.97
76808;BME280;65758;45.458;11.062;2023-06-10T13:12:20;100428.95;;;31.40;39.64
76808;BME280;65758;45.458;11.062;2023-06-10T13:19:21;100428.45;;;31.34;39.61
76808;BME280;65758;45.458;11.062;2023-06-10T13:21:52;100423.27;;;31.18;39.52
76808;BME280;65758;45.458;11.062;2023-06-10T13:24:19;100424.55;;;31.02;39.91
76808;BME280;65758;45.458;11.062;2023-06-10T13:26:47;100418.52;;;30.93;40.01
76808;BME280;65758;45.458;11.062;2023-06-10T13:29:14;100412.16;;;30.95;40.79
76808;BME280;65758;45.458;11.062;2023-06-10T13:31:41;100405.04;;;31.04;40.63
76808;BME280;65758;45.458;11.062;2023-06-10T13:34:09;100407.05;;;31.11;40.37
76808;BME280;65758;45.458;11.062;2023-06-10T13:36:36;100405.98;;;31.10;40.35
76808;BME280;65758;45.458;11.062;2023-06-10T13:39:03;100412.14;;;31.04;40.34
76808;BME280;65758;45.458;11.062;2023-06-10T13:41:30;100413.34;;;30.97;40.67
76808;BME280;65758;45.458;11.062;2023-06-10T13:43:56;100416.04;;;30.90;40.50
76808;BME280;65758;45.458;11.062;2023-06-10T13:46:23;100418.45;;;30.90;40.72
76808;BME280;65758;45.458;11.062;2023-06-10T13:48:50;100416.98;;;30.90;41.00
76808;BME280;65758;45.458;11.062;2023-06-10T13:51:17;100418.17;;;30.89;40.83
76808;BME280;65758;45.458;11.062;2023-06-10T13:53:44;100417.94;;;30.81;41.00
76808;BME280;65758;45.458;11.062;2023-06-10T13:56:12;100420.36;;;30.70;40.88
76808;BME280;65758;45.458;11.062;2023-06-10T13:58:40;100420.34;;;30.62;41.14
76808;BME280;65758;45.458;11.062;2023-06-10T14:01:09;100417.67;;;30.59;40.87
76808;BME280;65758;45.458;11.062;2023-06-10T14:03:36;100419.44;;;30.58;41.04
76808;BME280;65758;45.458;11.062;2023-06-10T14:06:04;100413.73;;;30.56;41.12
76808;BME280;65758;45.458;11.062;2023-06-10T14:08:30;100413.88;;;30.48;41.21
76808;BME280;65758;45.458;11.062;2023-06-10T14:10:57;100412.77;;;30.40;41.36
76808;BME280;65758;45.458;11.062;2023-06-10T14:13:25;100411.64;;;30.35;41.65
76808;BME280;65758;45.458;11.062;2023-06-10T14:15:52;100413.89;;;30.35;41.40
76808;BME280;65758;45.458;11.062;2023-06-10T14:18:19;100410.54;;;30.41;41.44
76808;BME280;65758;45.458;11.062;2023-06-10T14:20:46;100411.02;;;30.50;41.17
76808;BME280;65758;45.458;11.062;2023-06-10T14:23:13;100405.46;;;30.61;41.13
76808;BME280;65758;45.458;11.062;2023-06-10T14:25:40;100392.42;;;30.70;40.85